Time;durP1;ratioP1;P1;durP2;ratioP2;P2;SDS_P1;SDS_P2;PMS_P1;PMS_P2;Temp;Humidity;BMP_temperature;BMP_pressure;BME280_temperature;BME280_humidity;BME280_pressure;Samples;Min_cycle;Max_cycle;Signal;HPM_P1;HPM_P2
2022/07/11 00:02:17;;;;;;;3.10;0.97;;;;;;;17.04;65.67;96063.13;4356522;32;20195;-66
2022/07/11 00:04:45;;;;;;;0.77;0.67;;;;;;;16.83;66.44;96065.66;4356338;32;20199;-66
2022/07/11 00:07:11;;;;;;;0.40;0.40;;;;;;;17.02;66.34;96062.69;4331655;32;20184;-66
2022/07/11 00:09:37;;;;;;;0.60;0.60;;;;;;;17.02;66.73;96062.69;4342380;32;20208;-66
2022/07/11 00:12:05;;;;;;;0.60;0.60;;;;;;;16.76;66.98;96056.53;4343502;32;20245;-66
2022/07/11 00:14:31;;;;;;;0.50;0.50;;;;;;;16.71;67.16;96056.66;4371681;32;20193;-65
2022/07/11 00:16:58;;;;;;;0.93;0.93;;;;;;;16.94;67.48;96054.63;4353812;32;20193;-65
2022/07/11 00:19:24;;;;;;;0.63;0.63;;;;;;;16.90;66.39;96051.78;4358135;32;20188;-65
2022/07/11 00:21:53;;;;;;;0.57;0.57;;;;;;;16.93;64.01;96051.16;4357496;32;20203;-66
2022/07/11 00:24:19;;;;;;;0.40;0.40;;;;;;;17.09;65.83;96043.41;4341830;32;20189;-66
2022/07/11 00:26:48;;;;;;;0.40;0.40;;;;;;;16.95;63.70;96048.97;4334723;32;20207;-66
2022/07/11 00:29:19;;;;;;;0.40;0.40;;;;;;;16.87;63.92;96041.69;4359375;32;20197;-66
2022/07/11 00:31:44;;;;;;;0.63;0.63;;;;;;;16.73;66.20;96038.37;4340084;32;20197;-66
2022/07/11 00:34:11;;;;;;;1.80;0.60;;;;;;;16.89;64.48;96047.53;4343920;32;20207;-66
2022/07/11 00:36:38;;;;;;;0.27;0.27;;;;;;;17.03;64.77;96053.53;4320539;32;20185;-66
2022/07/11 00:39:04;;;;;;;0.30;0.30;;;;;;;17.13;64.42;96047.84;4358254;32;20329;-66
2022/07/11 00:41:32;;;;;;;0.23;0.23;;;;;;;17.12;63.99;96046.25;4363255;32;20199;-67
2022/07/11 00:43:59;;;;;;;0.20;0.20;;;;;;;17.09;64.43;96046.09;4348245;32;20196;-66
2022/07/11 00:46:28;;;;;;;0.60;0.60;;;;;;;17.04;63.12;96035.56;4333323;32;20192;-67
2022/07/11 00:48:56;;;;;;;4.83;0.83;;;;;;;16.89;63.27;96039.50;4343623;32;20255;-66
2022/07/11 00:51:25;;;;;;;1.00;0.40;;;;;;;17.04;62.92;96030.19;4366557;32;20200;-66
2022/07/11 00:53:54;;;;;;;0.20;0.20;;;;;;;17.05;63.67;96024.50;4371276;32;20291;-66
2022/07/11 00:56:21;;;;;;;0.20;0.20;;;;;;;16.82;63.69;96026.59;4363434;32;20202;-66
2022/07/11 00:58:49;;;;;;;0.47;0.47;;;;;;;17.04;63.63;96025.59;4339219;32;20214;-66
2022/07/11 01:01:15;;;;;;;0.20;0.20;;;;;;;17.00;61.52;96024.69;4349995;32;20189;-66
2022/07/11 01:03:42;;;;;;;0.40;0.23;;;;;;;16.76;61.57;96024.38;4353569;32;20222;-67
2022/07/11 01:06:09;;;;;;;0.93;0.53;;;;;;;16.88;64.37;96023.72;4350080;32;20197;-66
2022/07/11 01:08:39;;;;;;;0.80;0.80;;;;;;;16.92;64.68;96017.41;4357451;32;20181;-59
2022/07/11 01:11:40;;;;;;;0.93;0.40;;;;;;;17.04;64.68;96017.56;4372872;32;20264;-60
2022/07/11 01:14:07;;;;;;;0.13;0.13;;;;;;;16.80;64.67;96015.37;4360450;32;20250;-60
2022/07/11 01:16:33;;;;;;;0.53;0.53;;;;;;;16.97;65.01;96019.16;4365439;32;20197;-60
2022/07/11 01:19:00;;;;;;;0.27;0.20;;;;;;;17.05;65.43;96021.03;4372098;32;20196;-59
2022/07/11 01:21:51;;;;;;;0.10;0.10;;;;;;;17.07;65.34;96021.50;4368624;32;20197;-60
2022/07/11 01:24:19;;;;;;;0.43;0.43;;;;;;;17.08;65.54;96015.03;4362915;32;20197;-61
2022/07/11 01:26:52;;;;;;;0.60;0.60;;;;;;;16.98;66.07;96013.47;4375845;32;20192;-61
2022/07/11 01:29:19;;;;;;;0.97;0.60;;;;;;;17.10;65.93;96015.50;4366534;32;20200;-59
2022/07/11 01:31:46;;;;;;;0.43;0.43;;;;;;;17.11;65.88;96012.50;4366074;32;20184;-60
2022/07/11 01:34:12;;;;;;;0.33;0.33;;;;;;;17.10;65.11;96016.28;4365584;32;20205;-60
2022/07/11 01:36:39;;;;;;;0.10;0.10;;;;;;;17.09;63.61;96017.41;4365532;32;20278;-60
2022/07/11 01:39:06;;;;;;;0.37;0.37;;;;;;;17.23;65.32;96011.09;4371957;32;20319;-60
2022/07/11 01:41:33;;;;;;;0.10;0.10;;;;;;;17.22;64.84;96001.47;4365350;32;20203;-59
2022/07/11 01:43:59;;;;;;;0.10;0.10;;;;;;;17.20;65.90;96001.78;4372641;32;20207;-60
2022/07/11 01:46:26;;;;;;;0.60;0.60;;;;;;;17.12;64.76;96007.94;4350484;32;20188;-59
2022/07/11 01:48:55;;;;;;;0.10;0.10;;;;;;;17.11;64.35;96007.16;4370172;32;20255;-59
2022/07/11 01:51:22;;;;;;;0.13;0.13;;;;;;;17.13;65.86;96014.87;4372570;32;20231;-67
2022/07/11 01:53:52;;;;;;;0.07;0.07;;;;;;;17.09;65.38;96014.72;4372440;32;20294;-60
2022/07/11 01:56:20;;;;;;;0.30;0.30;;;;;;;17.11;66.10;96007.16;4374113;32;20204;-60
2022/07/11 01:58:47;;;;;;;0.23;0.23;;;;;;;17.12;65.74;96006.03;4365331;32;20207;-60
2022/07/11 02:01:17;;;;;;;3.90;0.40;;;;;;;17.03;66.13;96004.50;4365708;32;20240;-60
2022/07/11 02:03:45;;;;;;;0.47;0.47;;;;;;;17.01;65.81;95999.44;4373050;32;20203;-60
2022/07/11 02:06:11;;;;;;;0.37;0.37;;;;;;;16.98;66.83;96002.75;4364506;32;20228;-59
2022/07/11 02:08:37;;;;;;;0.27;0.27;;;;;;;17.14;67.59;95995.78;4350581;32;20234;-60
2022/07/11 02:11:07;;;;;;;0.23;0.23;;;;;;;17.18;66.79;95991.37;4358373;32;20196;-60
2022/07/11 02:13:34;;;;;;;0.20;0.20;;;;;;;17.20;65.98;95985.69;4347234;32;20262;-60
2022/07/11 02:15:59;;;;;;;0.30;0.30;;;;;;;17.19;64.24;95986.81;4354042;32;20212;-60
2022/07/11 02:18:27;;;;;;;0.20;0.20;;;;;;;17.10;65.51;95989.47;4357337;32;20193;-60
2022/07/11 02:20:55;;;;;;;0.23;0.23;;;;;;;17.18;64.52;95985.22;4374363;32;20211;-60
2022/07/11 02:23:21;;;;;;;0.83;0.30;;;;;;;17.26;65.49;95992.44;4362194;32;20287;-60
2022/07/11 02:25:48;;;;;;;0.20;0.20;;;;;;;17.33;65.25;95989.28;4368575;32;20195;-60
2022/07/11 02:28:16;;;;;;;0.50;0.50;;;;;;;17.20;64.70;95987.59;4362852;32;20190;-60
2022/07/11 02:30:45;;;;;;;1.00;0.70;;;;;;;17.09;64.67;95984.44;4364426;32;20202;-59
2022/07/11 02:33:15;;;;;;;0.10;0.10;;;;;;;17.08;64.16;95990.91;4352063;32;20204;-60
2022/07/11 02:35:46;;;;;;;0.10;0.10;;;;;;;17.21;65.59;95989.16;4349704;32;20191;-60
2022/07/11 02:38:14;;;;;;;0.10;0.10;;;;;;;17.18;65.06;95985.22;4327497;32;20197;-60
2022/07/11 02:40:40;;;;;;;0.30;0.30;;;;;;;17.18;66.69;95979.84;4356797;32;20257;-60
2022/07/11 02:43:07;;;;;;;0.80;0.80;;;;;;;17.20;66.15;95984.91;4372784;32;20212;-60
2022/07/11 02:45:36;;;;;;;0.20;0.20;;;;;;;17.17;65.15;95989.78;4374081;32;20251;-60
2022/07/11 02:48:01;;;;;;;0.63;0.50;;;;;;;17.25;65.81;95990.88;4345853;32;20259;-60
2022/07/11 02:50:31;;;;;;;0.30;0.30;;;;;;;17.25;65.07;95990.09;4370590;32;20207;-59
2022/07/11 02:52:58;;;;;;;0.20;0.20;;;;;;;17.24;65.43;95989.31;4370811;32;20173;-59
2022/07/11 02:55:25;;;;;;;0.10;0.10;;;;;;;17.29;65.44;95982.97;4366039;32;20234;-59
2022/07/11 02:57:51;;;;;;;0.20;0.20;;;;;;;17.23;64.63;95987.75;4364150;32;20439;-60
2022/07/11 03:00:18;;;;;;;0.03;0.03;;;;;;;17.15;63.73;95988.53;4370974;32;20199;-60
2022/07/11 03:02:43;;;;;;;0.67;0.67;;;;;;;17.08;63.84;95991.69;4358817;32;20188;-60
2022/07/11 03:05:09;;;;;;;0.67;0.63;;;;;;;17.08;64.80;95980.97;4358442;32;20207;-60
2022/07/11 03:07:36;;;;;;;0.30;0.30;;;;;;;17.21;65.78;95989.16;4358613;32;20340;-60
2022/07/11 03:10:04;;;;;;;1.70;0.40;;;;;;;17.18;64.57;95979.84;4370434;32;20270;-59
2022/07/11 03:12:29;;;;;;;7.10;0.77;;;;;;;17.15;64.17;95983.19;4325898;32;20181;-60
2022/07/11 03:15:00;;;;;;;0.00;0.00;;;;;;;17.12;65.97;95981.12;4339233;32;20194;-60
2022/07/11 03:17:29;;;;;;;1.17;0.50;;;;;;;17.18;65.80;95979.84;4340066;32;20197;-60
2022/07/11 03:19:56;;;;;;;0.20;0.20;;;;;;;17.29;65.23;95983.75;4320077;32;20223;-60
2022/07/11 03:22:24;;;;;;;0.10;0.10;;;;;;;17.32;64.91;95985.81;4360036;32;20189;-60
2022/07/11 03:24:53;;;;;;;0.90;0.27;;;;;;;17.23;64.06;95986.97;4368152;32;20200;-59
2022/07/11 03:27:20;;;;;;;0.10;0.10;;;;;;;17.09;63.60;95982.53;4371178;32;20193;-59
2022/07/11 03:29:47;;;;;;;0.17;0.17;;;;;;;17.20;64.64;95983.00;4364787;32;20196;-59
2022/07/11 03:32:14;;;;;;;0.10;0.10;;;;;;;17.17;61.78;95979.06;4381425;32;20294;-59
2022/07/11 03:35:40;;;;;;;0.20;0.20;;;;;;;17.00;61.82;95975.63;4343001;32;20213;-60
2022/07/11 03:37:27;;;;;;;0.13;0.13;;;;;;;17.02;65.55;95982.25;4376789;32;20189;-60
2022/07/11 03:39:53;;;;;;;0.20;0.20;;;;;;;17.09;66.30;95987.91;4364304;32;20243;-60
2022/07/11 03:42:19;;;;;;;0.77;0.30;;;;;;;17.09;64.77;95985.22;4349513;32;20245;-60
2022/07/11 03:44:45;;;;;;;0.20;0.20;;;;;;;17.16;64.32;95988.22;4354268;32;20239;-59
2022/07/11 03:47:13;;;;;;;0.20;0.20;;;;;;;17.10;64.67;95991.37;4363302;32;20238;-60
2022/07/11 03:49:41;;;;;;;0.10;0.10;;;;;;;17.13;62.62;95983.50;4374166;32;20309;-59
2022/07/11 03:52:06;;;;;;;0.20;0.20;;;;;;;17.02;61.38;95979.59;4356609;32;20218;-60
2022/07/11 03:54:43;;;;;;;0.23;0.23;;;;;;;17.07;63.00;95984.75;4334363;32;20205;-59
2022/07/11 03:57:10;;;;;;;0.17;0.17;;;;;;;16.95;64.41;95981.16;4367714;32;20280;-59
2022/07/11 03:59:37;;;;;;;0.50;0.40;;;;;;;16.97;64.30;95973.59;4351707;32;20282;-59
2022/07/11 04:02:02;;;;;;;0.30;0.30;;;;;;;17.03;63.83;95973.12;4337521;32;20236;-59
2022/07/11 04:04:29;;;;;;;0.10;0.10;;;;;;;16.97;63.36;95981.63;4370337;32;20196;-59
2022/07/11 04:06:54;;;;;;;0.20;0.20;;;;;;;17.04;63.79;95982.69;4366783;32;20192;-60
2022/07/11 04:09:25;;;;;;;0.40;0.40;;;;;;;17.04;63.92;95987.31;4374055;32;20207;-59
2022/07/11 04:11:52;;;;;;;0.27;0.27;;;;;;;17.13;64.47;95983.50;4363396;32;20193;-59
2022/07/11 04:14:18;;;;;;;0.27;0.27;;;;;;;16.98;64.51;95978.63;4365578;32;20207;-60
2022/07/11 04:16:44;;;;;;;5.70;0.70;;;;;;;16.98;63.05;95988.56;4309308;32;20233;-60
2022/07/11 04:19:12;;;;;;;0.07;0.07;;;;;;;17.06;65.45;95982.38;4362247;32;20192;-60
2022/07/11 04:21:38;;;;;;;0.10;0.10;;;;;;;17.01;63.38;95980.69;4369949;32;20188;-60
2022/07/11 04:24:04;;;;;;;0.20;0.20;;;;;;;17.06;64.54;95985.84;4361168;32;20250;-60
2022/07/11 04:26:32;;;;;;;0.20;0.20;;;;;;;17.08;63.78;95989.00;4372426;32;20254;-60
2022/07/11 04:28:59;;;;;;;0.10;0.10;;;;;;;17.07;62.12;95998.16;4358546;32;20193;-60
2022/07/11 04:31:25;;;;;;;0.00;0.00;;;;;;;17.12;63.10;95981.91;4366091;32;20213;-60
2022/07/11 04:33:52;;;;;;;0.33;0.33;;;;;;;16.98;62.31;95983.22;4331847;32;20244;-60
2022/07/11 04:36:18;;;;;;;0.20;0.20;;;;;;;17.15;63.78;95986.66;4366013;32;20223;-60
2022/07/11 04:38:49;;;;;;;0.60;0.60;;;;;;;17.16;64.36;95988.22;4368588;32;20192;-59
2022/07/11 04:41:14;;;;;;;2.20;0.43;;;;;;;17.05;58.40;95981.59;4341558;32;20224;-60
2022/07/11 04:43:42;;;;;;;1.70;0.87;;;;;;;17.02;61.48;95982.25;4350131;32;20192;-60
2022/07/11 04:46:17;;;;;;;0.10;0.10;;;;;;;17.04;62.92;95995.34;4323963;32;20251;-60
2022/07/11 04:48:44;;;;;;;0.30;0.30;;;;;;;16.98;63.46;95992.03;4373179;32;20204;-60
2022/07/11 04:51:12;;;;;;;0.10;0.10;;;;;;;17.07;63.94;95989.31;4364965;32;20196;-59
2022/07/11 04:53:38;;;;;;;0.30;0.30;;;;;;;17.17;63.57;95991.69;4350477;32;20189;-60
2022/07/11 04:56:08;;;;;;;0.20;0.20;;;;;;;17.09;62.98;96004.00;4368522;32;20258;-60
2022/07/11 04:58:35;;;;;;;0.20;0.20;;;;;;;17.08;60.92;95991.69;4384642;32;20195;-59
2022/07/11 05:01:01;;;;;;;0.37;0.30;;;;;;;17.13;62.91;95993.44;4374308;32;20230;-59
2022/07/11 05:03:28;;;;;;;0.10;0.10;;;;;;;17.00;59.57;95992.50;4333080;32;20220;-59
2022/07/11 05:05:54;;;;;;;1.07;0.50;;;;;;;17.09;65.32;95993.28;4345452;32;20204;-60
2022/07/11 05:08:21;;;;;;;0.10;0.10;;;;;;;17.09;64.02;95995.94;4356656;32;20226;-60
2022/07/11 05:10:48;;;;;;;0.20;0.20;;;;;;;17.07;62.19;95998.16;4304192;32;20216;-63
2022/07/11 05:13:17;;;;;;;0.00;0.00;;;;;;;17.20;63.40;95996.41;4372572;32;20366;-59
2022/07/11 05:15:42;;;;;;;8.73;1.00;;;;;;;17.29;63.89;96001.75;4361092;32;20185;-59
2022/07/11 05:18:08;;;;;;;0.13;0.13;;;;;;;17.33;63.24;96000.81;4373884;32;20192;-59
2022/07/11 05:20:37;;;;;;;0.73;0.50;;;;;;;17.31;64.31;96002.22;4370457;32;20209;-60
2022/07/11 05:23:03;;;;;;;0.30;0.30;;;;;;;17.32;63.85;96006.47;4365600;32;20311;-59
2022/07/11 05:25:29;;;;;;;1.70;0.50;;;;;;;17.45;64.92;96006.31;4372204;32;20258;-59
2022/07/11 05:27:55;;;;;;;0.10;0.10;;;;;;;17.41;62.93;96013.41;4366027;32;20192;-59
2022/07/11 05:30:24;;;;;;;0.37;0.37;;;;;;;17.39;60.61;96012.94;4356094;32;20217;-59
2022/07/11 05:32:51;;;;;;;1.43;0.40;;;;;;;17.32;63.24;96012.63;4348938;32;20199;-61
2022/07/11 05:35:18;;;;;;;0.33;0.33;;;;;;;17.30;60.76;96014.06;4326845;32;20194;-60
2022/07/11 05:37:47;;;;;;;0.27;0.20;;;;;;;17.36;64.65;96016.25;4356162;32;20255;-60
2022/07/11 05:40:14;;;;;;;0.13;0.13;;;;;;;17.35;61.23;96013.91;4370620;32;20203;-60
2022/07/11 05:42:41;;;;;;;0.13;0.13;;;;;;;17.25;60.63;96027.66;4368755;32;20193;-60
2022/07/11 05:45:13;;;;;;;0.47;0.47;;;;;;;17.30;60.54;96017.53;4349990;32;20278;-60
2022/07/11 05:47:40;;;;;;;0.30;0.30;;;;;;;17.37;64.52;96019.72;4357543;32;20292;-60
2022/07/11 05:50:06;;;;;;;1.40;0.30;;;;;;;17.36;62.37;96020.84;4355075;32;20212;-60
2022/07/11 05:52:31;;;;;;;22.83;0.83;;;;;;;17.33;60.94;96018.78;4339126;32;20232;-60
2022/07/11 05:54:59;;;;;;;2.20;1.30;;;;;;;17.40;60.10;96017.22;4309011;32;20243;-59
2022/07/11 05:57:27;;;;;;;3.53;1.33;;;;;;;17.33;63.04;96018.78;4358993;32;20250;-59
2022/07/11 05:59:53;;;;;;;0.60;0.40;;;;;;;17.43;63.79;96024.63;4346508;32;20311;-60
2022/07/11 06:02:20;;;;;;;2.80;1.60;;;;;;;17.55;60.71;96015.91;4340786;32;20201;-60
2022/07/11 06:04:49;;;;;;;0.63;0.63;;;;;;;17.60;64.90;96018.41;4331519;32;20209;-64
2022/07/11 06:08:40;;;;;;;1.90;0.30;;;;;;;17.51;61.89;96015.75;4369804;32;20189;-59
2022/07/11 06:10:01;;;;;;;2.53;0.50;;;;;;;17.33;61.53;96021.47;4374098;32;20197;-60
2022/07/11 06:12:26;;;;;;;0.20;0.20;;;;;;;17.32;60.64;96014.53;4374179;32;20180;-60
2022/07/11 06:14:52;;;;;;;0.47;0.47;;;;;;;17.37;62.24;96015.16;4357157;32;20228;-60
2022/07/11 06:17:17;;;;;;;0.20;0.20;;;;;;;17.36;61.69;96013.59;4362780;32;20200;-59
2022/07/11 06:19:42;;;;;;;0.10;0.10;;;;;;;17.37;60.33;96011.69;4363354;32;20265;-60
2022/07/11 06:22:08;;;;;;;0.10;0.10;;;;;;;17.43;60.01;96007.72;4351060;32;20232;-60
2022/07/11 06:24:36;;;;;;;2.40;0.40;;;;;;;17.52;59.96;96001.22;4373319;32;20173;-59
2022/07/11 06:27:04;;;;;;;0.97;0.90;;;;;;;17.57;61.22;96013.69;4370897;32;20192;-59
2022/07/11 06:29:30;;;;;;;1.80;1.13;;;;;;;17.65;62.79;96007.53;4355677;32;20316;-59
2022/07/11 06:31:56;;;;;;;1.40;0.77;;;;;;;17.72;59.72;96010.50;4334592;32;20209;-60
2022/07/11 06:34:23;;;;;;;1.70;0.93;;;;;;;17.77;62.18;96010.31;4344594;32;20258;-59
2022/07/11 06:36:50;;;;;;;0.30;0.30;;;;;;;18.00;62.06;96007.41;4358437;32;20188;-60
2022/07/11 06:39:17;;;;;;;1.13;0.83;;;;;;;17.96;61.08;96003.78;4337479;32;20192;-61
2022/07/11 06:41:42;;;;;;;0.73;0.43;;;;;;;17.95;60.58;96002.97;4362639;32;20207;-61
2022/07/11 06:44:14;;;;;;;0.50;0.50;;;;;;;18.08;58.68;96006.56;4371034;32;20188;-60
2022/07/11 06:46:41;;;;;;;0.73;0.73;;;;;;;18.19;60.01;96011.25;4344448;32;20433;-62
2022/07/11 06:49:10;;;;;;;8.93;1.30;;;;;;;18.26;58.32;96013.44;4351796;32;20311;-61
2022/07/11 06:51:37;;;;;;;1.20;1.00;;;;;;;18.35;58.53;96010.66;4332337;32;20193;-62
2022/07/11 06:54:05;;;;;;;4.80;1.73;;;;;;;18.38;60.11;96010.03;4331456;32;20236;-61
2022/07/11 06:56:34;;;;;;;0.53;0.47;;;;;;;18.44;57.83;96009.50;4343138;32;20202;-60
2022/07/11 06:59:01;;;;;;;0.47;0.40;;;;;;;18.40;55.58;96005.91;4352889;32;20255;-60
2022/07/11 07:01:28;;;;;;;0.40;0.40;;;;;;;18.43;56.44;96007.16;4356986;32;20278;-62
2022/07/11 07:03:56;;;;;;;0.20;0.20;;;;;;;18.36;56.12;96007.66;4361124;32;20210;-61
2022/07/11 07:06:21;;;;;;;0.70;0.70;;;;;;;18.31;55.30;96010.53;4298106;32;20202;-62
2022/07/11 07:08:50;;;;;;;0.57;0.57;;;;;;;18.43;58.40;96012.53;4321901;32;20189;-61
2022/07/11 07:11:18;;;;;;;0.73;0.50;;;;;;;18.12;57.04;96010.94;4363253;32;20208;-61
2022/07/11 07:13:47;;;;;;;0.10;0.10;;;;;;;18.36;56.18;96002.28;4353874;32;20197;-60
2022/07/11 07:16:13;;;;;;;0.13;0.13;;;;;;;18.42;56.59;96017.13;4336451;32;20197;-60
2022/07/11 07:18:45;;;;;;;0.10;0.10;;;;;;;18.40;54.29;96016.66;4347228;32;20220;-61
2022/07/11 07:21:12;;;;;;;0.40;0.40;;;;;;;18.48;55.27;96018.50;4327595;32;20238;-59
2022/07/11 07:23:38;;;;;;;0.40;0.40;;;;;;;18.43;55.49;96012.53;4353217;32;20286;-60
2022/07/11 07:26:08;;;;;;;0.20;0.20;;;;;;;18.42;55.24;96011.75;4349794;32;20206;-62
2022/07/11 07:28:38;;;;;;;0.10;0.10;;;;;;;18.17;55.89;96005.41;4343530;32;20193;-61
2022/07/11 07:31:11;;;;;;;0.20;0.20;;;;;;;18.38;58.00;96015.41;4330928;32;20192;-59
2022/07/11 07:33:36;;;;;;;0.83;0.83;;;;;;;18.54;58.17;96006.44;4328946;32;20345;-61
2022/07/11 07:36:07;;;;;;;0.43;0.43;;;;;;;18.42;56.33;96011.75;4344836;32;20247;-60
2022/07/11 07:38:33;;;;;;;0.10;0.10;;;;;;;18.40;55.02;96011.28;4338885;32;20292;-61
2022/07/11 07:41:00;;;;;;;0.10;0.10;;;;;;;18.48;56.22;96007.75;4305386;32;20201;-60
2022/07/11 07:43:26;;;;;;;0.07;0.07;;;;;;;18.58;55.94;96011.16;4337746;32;20193;-60
2022/07/11 07:45:53;;;;;;;2.53;0.33;;;;;;;18.68;56.52;96011.59;4314334;32;20294;-60
2022/07/11 07:48:21;;;;;;;0.03;0.03;;;;;;;18.80;56.01;96008.97;4345646;32;20236;-60
2022/07/11 07:50:53;;;;;;;0.30;0.30;;;;;;;18.78;55.56;96007.72;4315361;32;20205;-69
2022/07/11 07:53:20;;;;;;;0.30;0.30;;;;;;;18.82;55.20;96012.09;4312979;32;20211;-60
2022/07/11 07:55:47;;;;;;;1.40;0.40;;;;;;;18.85;54.03;96003.41;4350739;32;20193;-60
2022/07/11 07:58:16;;;;;;;0.80;0.50;;;;;;;18.89;54.62;96006.22;4320536;32;20181;-60
2022/07/11 08:03:31;;;;;;;1.07;0.50;;;;;;;18.98;55.36;96006.91;4344387;32;20278;-60
2022/07/11 08:05:57;;;;;;;3.47;0.53;;;;;;;18.98;55.45;96011.50;4365932;32;20211;-59
2022/07/11 08:08:25;;;;;;;0.70;0.53;;;;;;;18.82;55.84;96005.94;4349902;32;20277;-59
2022/07/11 08:10:55;;;;;;;0.10;0.10;;;;;;;18.87;57.38;95995.00;4347575;32;20196;-61
2022/07/11 08:13:22;;;;;;;1.20;0.30;;;;;;;18.83;58.03;95994.88;4357944;32;20275;-60
2022/07/11 08:15:48;;;;;;;0.30;0.30;;;;;;;18.91;55.81;96012.06;4375597;32;20192;-62
2022/07/11 08:18:15;;;;;;;0.13;0.13;;;;;;;18.80;56.51;96005.47;4357609;32;20197;-61
2022/07/11 08:20:45;;;;;;;0.10;0.10;;;;;;;18.89;58.27;96008.91;4371545;32;20200;-60
2022/07/11 08:23:12;;;;;;;0.20;0.20;;;;;;;18.92;56.69;96002.84;4339853;32;20290;-61
2022/07/11 08:25:42;;;;;;;0.30;0.30;;;;;;;18.96;56.58;96009.13;4360287;32;20346;-61
2022/07/11 08:28:08;;;;;;;0.00;0.00;;;;;;;18.85;56.85;96006.09;4340081;32;20197;-59
2022/07/11 08:30:37;;;;;;;0.20;0.20;;;;;;;18.95;57.56;96007.56;4358972;32;20209;-59
2022/07/11 08:33:03;;;;;;;0.60;0.30;;;;;;;18.91;57.27;96012.06;4352776;32;20211;-60
2022/07/11 08:35:30;;;;;;;0.77;0.40;;;;;;;19.06;57.85;96008.75;4345002;32;20235;-60
2022/07/11 08:37:56;;;;;;;0.20;0.20;;;;;;;19.15;58.36;96012.13;4350889;32;20223;-62
2022/07/11 08:40:22;;;;;;;0.20;0.20;;;;;;;19.07;57.53;96013.00;4359452;32;20207;-60
2022/07/11 08:42:49;;;;;;;0.00;0.00;;;;;;;19.23;57.28;96005.91;4380269;32;20181;-67
2022/07/11 08:45:18;;;;;;;2.20;0.63;;;;;;;19.26;56.02;96009.84;4372386;32;20202;-59
2022/07/11 08:47:45;;;;;;;0.20;0.20;;;;;;;19.32;54.00;96007.72;4346877;32;20218;-59
2022/07/11 08:50:13;;;;;;;0.13;0.13;;;;;;;19.36;53.60;96016.69;4353395;32;20219;-60
2022/07/11 08:52:39;;;;;;;0.07;0.07;;;;;;;19.23;54.99;96003.19;4369098;32;20197;-59
2022/07/11 08:55:09;;;;;;;0.10;0.10;;;;;;;19.04;53.43;96010.97;4333362;32;20214;-60
2022/07/11 08:57:37;;;;;;;0.00;0.00;;;;;;;18.94;55.50;96014.06;4351321;32;20250;-59
2022/07/11 09:00:12;;;;;;;0.10;0.10;;;;;;;19.04;54.12;96008.28;4364452;32;20239;-59
2022/07/11 09:02:42;;;;;;;0.10;0.10;;;;;;;19.13;53.44;96008.97;4316157;32;21825;-60
2022/07/11 09:05:10;;;;;;;0.03;0.03;;;;;;;19.27;53.46;96003.34;4370627;32;25359;-60
2022/07/11 09:07:48;;;;;;;0.60;0.20;;;;;;;19.28;53.39;96002.22;4325066;32;20189;-61
2022/07/11 09:10:37;;;;;;;0.10;0.10;;;;;;;19.39;52.92;95999.87;4369042;32;20214;-58
2022/07/11 09:13:15;;;;;;;2.13;0.47;;;;;;;19.34;54.46;95995.47;4341200;32;20197;-59
2022/07/11 09:15:48;;;;;;;1.90;0.77;;;;;;;19.46;55.03;95995.53;4356013;32;20180;-58
2022/07/11 09:18:40;;;;;;;0.30;0.30;;;;;;;19.48;53.82;95998.69;4344737;32;20189;-59
2022/07/11 09:26:53;;;;;;;0.13;0.13;;;;;;;19.61;54.26;95990.66;4365197;32;20214;-64
2022/07/11 09:29:23;;;;;;;0.00;0.00;;;;;;;19.63;53.25;95997.28;4368765;32;20192;-60
2022/07/11 09:31:50;;;;;;;0.17;0.17;;;;;;;19.56;51.28;95999.72;4334481;32;20215;-59
2022/07/11 09:34:20;;;;;;;0.10;0.10;;;;;;;19.44;53.15;95996.97;4377297;32;20193;-60
2022/07/11 09:36:56;;;;;;;0.03;0.03;;;;;;;19.47;54.57;95996.31;4368485;32;20192;-61
2022/07/11 09:39:37;;;;;;;0.00;0.00;;;;;;;19.41;52.60;95995.75;4364877;32;20219;-60
2022/07/11 09:42:03;;;;;;;0.00;0.00;;;;;;;19.30;53.99;95999.19;4355696;32;20248;-60
2022/07/11 09:44:33;;;;;;;0.10;0.10;;;;;;;19.38;52.57;96001.00;4359897;32;20188;-60
2022/07/11 09:47:11;;;;;;;0.07;0.07;;;;;;;19.22;53.87;96003.53;4359305;32;20211;-60
2022/07/11 09:49:39;;;;;;;0.00;0.00;;;;;;;19.34;52.83;96000.06;4311479;32;20214;-59
2022/07/11 09:52:16;;;;;;;0.20;0.20;;;;;;;19.34;52.44;95998.19;4356065;32;20207;-59
2022/07/11 09:55:05;;;;;;;1.67;1.57;;;;;;;19.40;53.99;96006.84;4359800;32;20247;-59
2022/07/11 09:57:38;;;;;;;0.10;0.10;;;;;;;19.43;53.82;96004.28;4371156;32;20238;-59
2022/07/11 10:00:11;;;;;;;0.83;0.80;;;;;;;19.56;53.48;95999.72;4361085;32;20192;-59
2022/07/11 10:02:37;;;;;;;1.03;0.87;;;;;;;19.57;52.00;95995.91;4362428;32;20233;-59
2022/07/11 10:05:06;;;;;;;0.80;0.80;;;;;;;19.41;52.43;95986.88;4357009;32;20231;-59
2022/07/11 10:07:33;;;;;;;0.67;0.67;;;;;;;19.51;54.49;95999.94;4320585;32;20211;-59
2022/07/11 10:10:02;;;;;;;0.40;0.40;;;;;;;19.60;53.46;96000.63;4358326;32;20189;-47
2022/07/11 10:12:33;;;;;;;0.00;0.00;;;;;;;19.69;55.82;96009.41;4354493;32;20256;-50
2022/07/11 10:15:10;;;;;;;0.00;0.00;;;;;;;19.88;55.25;95993.50;4365730;32;20232;-48
2022/07/11 10:17:57;;;;;;;0.90;0.27;;;;;;;20.10;55.10;95991.47;4354139;32;20207;-49
2022/07/11 10:20:39;;;;;;;0.50;0.50;;;;;;;20.28;53.82;95997.41;4334063;32;20233;-47
2022/07/11 10:23:31;;;;;;;0.80;0.80;;;;;;;20.35;55.03;96003.03;4341281;32;20196;-47
2022/07/11 10:26:07;;;;;;;0.20;0.20;;;;;;;20.47;55.31;96001.13;4275791;32;20260;-45
2022/07/11 10:28:51;;;;;;;0.20;0.20;;;;;;;20.55;53.73;95996.75;4343577;32;20257;-46
2022/07/11 10:31:27;;;;;;;2.17;0.93;;;;;;;20.57;54.73;96010.66;4332269;32;20221;-49
2022/07/11 10:34:05;;;;;;;0.40;0.40;;;;;;;20.58;53.50;96007.59;4344263;32;20215;-46
2022/07/11 10:36:34;;;;;;;0.00;0.00;;;;;;;20.46;53.30;96007.63;4367875;32;20185;-45
2022/07/11 10:39:24;;;;;;;0.00;0.00;;;;;;;20.48;53.08;96013.47;4359590;32;20192;-45
2022/07/11 10:41:52;;;;;;;0.00;0.00;;;;;;;20.52;52.01;96006.28;4327571;32;20205;-47
2022/07/11 10:44:18;;;;;;;0.10;0.10;;;;;;;20.62;51.23;96010.41;4356528;32;20200;-55
2022/07/11 10:46:45;;;;;;;0.40;0.30;;;;;;;20.51;52.31;96017.41;4333846;32;20196;-48
2022/07/11 10:49:37;;;;;;;0.07;0.07;;;;;;;20.45;51.26;96011.47;4358597;32;20211;-45
2022/07/11 10:52:09;;;;;;;0.10;0.10;;;;;;;20.44;52.54;96017.19;4344899;32;20292;-45
2022/07/11 10:54:51;;;;;;;0.10;0.10;;;;;;;20.43;53.48;96011.00;4355050;32;20267;-50
2022/07/11 10:57:49;;;;;;;0.00;0.00;;;;;;;20.47;54.09;96008.44;4375224;32;20240;-44
2022/07/11 11:00:20;;;;;;;0.23;0.23;;;;;;;20.52;52.71;96019.78;4351522;32;20192;-46
2022/07/11 11:03:04;;;;;;;0.07;0.07;;;;;;;20.54;52.80;96017.53;4369439;32;20221;-50
2022/07/11 11:05:54;;;;;;;0.00;0.00;;;;;;;20.59;50.46;96019.19;4366419;32;20193;-47
2022/07/11 11:08:40;;;;;;;0.30;0.30;;;;;;;20.63;54.28;96009.28;4320634;32;20221;-45
2022/07/11 11:11:24;;;;;;;0.00;0.00;;;;;;;20.67;54.55;96012.88;4357451;32;20192;-45
2022/07/11 11:14:16;;;;;;;0.00;0.00;;;;;;;20.65;54.55;96006.25;4338242;32;20288;-46
2022/07/11 11:16:44;;;;;;;0.33;0.17;;;;;;;20.59;52.56;96006.47;4336555;32;20244;-44
2022/07/11 11:19:51;;;;;;;0.00;0.00;;;;;;;20.66;51.52;96007.81;4358006;32;20206;-46
2022/07/11 11:22:18;;;;;;;0.00;0.00;;;;;;;20.63;53.22;96003.09;4369465;32;20184;-44
2022/07/11 11:24:47;;;;;;;0.00;0.00;;;;;;;20.70;51.67;95998.72;4335725;32;20197;-45
2022/07/11 11:27:21;;;;;;;0.10;0.10;;;;;;;20.77;53.31;96004.31;4368876;32;20204;-45
2022/07/11 11:30:16;;;;;;;0.30;0.30;;;;;;;20.91;51.55;96003.94;4355412;32;20228;-46
2022/07/11 11:32:43;;;;;;;0.10;0.10;;;;;;;20.88;53.46;96004.63;4319848;32;20192;-48
2022/07/11 11:35:10;;;;;;;0.13;0.13;;;;;;;20.83;51.89;95999.47;4360472;32;20306;-47
2022/07/11 11:37:36;;;;;;;0.00;0.00;;;;;;;20.92;54.65;96000.91;4346418;32;20203;-48
2022/07/11 11:40:03;;;;;;;0.33;0.33;;;;;;;20.99;50.79;96011.09;4335245;32;20189;-49
2022/07/11 11:42:30;;;;;;;0.00;0.00;;;;;;;20.95;51.71;96009.44;4330692;32;20196;-47
2022/07/11 11:45:04;;;;;;;0.00;0.00;;;;;;;20.88;51.73;96016.19;4321673;32;20238;-46
2022/07/11 11:47:31;;;;;;;0.17;0.17;;;;;;;20.72;51.57;96007.25;4332446;32;20234;-49
2022/07/11 11:50:01;;;;;;;0.13;0.13;;;;;;;20.72;52.40;96014.56;4338662;32;20279;-48
2022/07/11 11:52:28;;;;;;;0.10;0.10;;;;;;;20.68;53.83;96009.06;4360219;32;20184;-47
2022/07/11 11:54:59;;;;;;;0.10;0.10;;;;;;;20.68;53.70;96011.75;4343095;32;20262;-48